»·PEaware :: N841LR KCNO-KWHP

N841LR :: KCNO-KWHP

FLIGHT INFORMATION

Flight Status: Arrived
Operator: Privately registered:
United States
More flights under this callsign
Pilot: Jacques L. (5097)
Aircraft: EMBRAER BANDEIRANTE
(E110)
More flights by this aircraft type
Origin: KCNO Chino
United States
Destination: KWHP Whiteman
United States
More flights between these airports :: More routes between these airports
Route: PDZ V197 POM V264 ITSME V186 VNY
File this flight plan on PilotEdge
Remarks: TEC route ONTN2
Altitude:
(Current/Filed)
8,000ft
Speed:
(Current/Filed)
230kts
Departed: 29-Jun-15 12:00 PM
Arrived: 29-Jun-15 12:20 PM
Distance/Time
Traveled:
42nm/0:20
Distance/Time
To Go:
Arrived

Flight Plot

Page will automatically refresh every two minutes.


Map Options




Map Legend


Flown Route
Filed Route
Departure Airport
Arrival Airport
Navaid (VOR, NDB)
Fix

Horizontal Profiles

Position Reports

Time Latitude Longitude Heading Altitude Ground
Speed
29-Jun-15 11:38 33.978119 -117.637550 88 655ft 0kts
29-Jun-15 11:39 33.978119 -117.637550 88 655ft 0kts
29-Jun-15 11:40 33.978119 -117.637550 88 655ft 0kts
29-Jun-15 11:41 33.978119 -117.637550 88 655ft 0kts
29-Jun-15 11:42 33.978119 -117.637550 88 655ft 0kts
29-Jun-15 11:43 33.978119 -117.637550 88 655ft 0kts
29-Jun-15 11:44 33.978119 -117.637550 88 655ft 0kts
29-Jun-15 11:45 33.978119 -117.637550 88 655ft 0kts
29-Jun-15 11:46 33.978119 -117.637550 88 655ft 0kts
29-Jun-15 11:47 33.978119 -117.637550 88 655ft 0kts
29-Jun-15 11:48 33.978119 -117.637550 88 655ft 0kts
29-Jun-15 11:49 33.978119 -117.637550 88 655ft 0kts
29-Jun-15 11:50 33.978119 -117.637550 88 655ft 0kts
29-Jun-15 11:51 33.978119 -117.637550 88 655ft 0kts
29-Jun-15 11:52 33.978119 -117.637550 88 655ft 0kts
29-Jun-15 11:53 33.977487 -117.637240 170 655ft 9kts
29-Jun-15 11:54 33.976924 -117.633116 88 655ft 22kts
29-Jun-15 11:55 33.976679 -117.630839 173 655ft 0kts
29-Jun-15 11:56 33.976679 -117.630839 173 655ft 0kts
29-Jun-15 11:57 33.976679 -117.630839 173 655ft 0kts
29-Jun-15 11:58 33.975992 -117.631171 234 655ft 19kts
29-Jun-15 11:59 33.977211 -117.663757 277 1178ft 134kts
29-Jun-15 12:00 33.979425 -117.710111 273 2173ft 146kts
29-Jun-15 12:01 33.983361 -117.757979 292 3437ft 147kts
29-Jun-15 12:02 34.000473 -117.802903 296 4844ft 150kts
29-Jun-15 12:03 34.017362 -117.849125 289 6250ft 153kts
29-Jun-15 12:04 34.032967 -117.897318 289 7818ft 157kts
29-Jun-15 12:05 34.051372 -117.954204 290 8006ft 214kts
29-Jun-15 12:06 34.074865 -118.026935 291 7987ft 234kts
29-Jun-15 12:07 34.098946 -118.101882 290 7979ft 241kts
29-Jun-15 12:08 34.123114 -118.177408 290 7976ft 242kts
29-Jun-15 12:09 34.147142 -118.252491 291 7973ft 244kts
29-Jun-15 12:10 34.171654 -118.329266 291 7741ft 240kts
29-Jun-15 12:11 34.194468 -118.400661 291 6731ft 226kts
29-Jun-15 12:12 34.216186 -118.466703 293 5697ft 196kts
29-Jun-15 12:13 34.245835 -118.514255 314 4586ft 169kts
29-Jun-15 12:14 34.278268 -118.553906 323 3185ft 165kts
29-Jun-15 12:15 34.297027 -118.529630 113 2140ft 135kts
29-Jun-15 12:16 34.292926 -118.488296 93 1874ft 121kts
29-Jun-15 12:17 34.293946 -118.455033 20 1876ft 123kts
29-Jun-15 12:18 34.275301 -118.430694 137 1241ft 120kts
29-Jun-15 12:19 34.257862 -118.411616 93 1007ft 12kts
29-Jun-15 12:20 34.258993 -118.412482 320 1007ft 7kts
29-Jun-15 12:21 34.260021 -118.412073 141 1007ft 0kts
29-Jun-15 12:22 34.260021 -118.412073 141 1007ft 0kts
29-Jun-15 12:23 34.260021 -118.412073 141 1007ft 0kts
29-Jun-15 12:24 34.260021 -118.412073 141 1007ft 0kts
29-Jun-15 12:25 34.260021 -118.412073 141 1007ft 0kts
29-Jun-15 12:26 34.260021 -118.412073 141 1007ft 0kts
29-Jun-15 12:27 34.260021 -118.412073 141 1007ft 0kts
29-Jun-15 12:28 34.260021 -118.412073 141 1007ft 0kts
29-Jun-15 12:29 34.260021 -118.412073 141 1007ft 0kts
29-Jun-15 12:30 34.260021 -118.412073 141 1007ft 0kts
29-Jun-15 12:31 34.260021 -118.412073 141 1007ft 0kts
29-Jun-15 12:32 34.260021 -118.412073 141 1007ft 0kts
29-Jun-15 12:33 34.260021 -118.412073 141 1007ft 0kts

Navigation Log

Ident Type
Flight plan parsing failed, navigation log unavailable